createdAt,value
2023-05-02T00:00:45.235Z,84.8024
2023-05-02T00:01:47.956Z,84.8657
2023-05-02T00:02:50.623Z,85.1059
2023-05-02T00:03:53.111Z,85.3825
2023-05-02T00:04:55.678Z,85.6192
2023-05-02T00:05:58.313Z,85.8269
2023-05-02T00:07:00.862Z,85.8859
2023-05-02T00:08:03.503Z,85.7991
2023-05-02T00:09:06.075Z,85.6100
2023-05-02T00:10:08.710Z,85.6302
2023-05-02T00:11:11.320Z,85.4925
2023-05-02T00:12:13.928Z,85.5038
2023-05-02T00:13:16.512Z,85.4965
2023-05-02T00:14:19.134Z,85.5307
2023-05-02T00:15:21.738Z,85.3673
2023-05-02T00:16:24.411Z,85.2658
2023-05-02T00:17:27.066Z,84.8222
2023-05-02T00:18:29.568Z,84.7495
2023-05-02T00:19:32.154Z,85.0954
2023-05-02T00:20:34.783Z,85.5509
2023-05-02T00:21:39.419Z,86.1437
2023-05-02T00:22:40.005Z,86.7184
2023-05-02T00:23:42.575Z,87.1065
2023-05-02T00:24:45.222Z,87.4188
2023-05-02T00:25:47.806Z,87.6589
2023-05-02T00:26:50.445Z,87.6702
2023-05-02T00:27:53.053Z,87.6174
2023-05-02T00:28:55.669Z,87.3901
2023-05-02T00:30:00.646Z,86.9164
2023-05-02T00:31:02.973Z,86.6290
2023-05-02T00:32:05.514Z,86.5638
2023-05-02T00:33:08.160Z,86.5169
2023-05-02T00:34:10.726Z,86.4993
2023-05-02T00:35:13.338Z,86.5068
2023-05-02T00:36:13.888Z,86.5041
2023-05-02T00:37:16.516Z,86.8467
2023-05-02T00:38:19.089Z,87.1791
2023-05-02T00:39:21.741Z,87.0695
2023-05-02T00:40:24.306Z,87.2379
2023-05-02T00:41:26.972Z,87.4624
2023-05-02T00:42:29.536Z,87.8113
2023-05-02T00:43:32.176Z,87.7655
2023-05-02T00:44:34.763Z,87.6115
2023-05-02T00:45:37.659Z,87.4338
2023-05-02T00:46:41.120Z,87.1955
2023-05-02T00:47:42.631Z,86.9125
2023-05-02T00:48:45.199Z,86.5356
2023-05-02T00:49:47.810Z,86.4258
2023-05-02T00:50:50.394Z,86.2675
2023-05-02T00:51:53.032Z,86.2086
2023-05-02T00:52:55.617Z,86.2432
2023-05-02T00:53:58.263Z,86.2960
2023-05-02T00:55:00.843Z,86.2458
2023-05-02T00:56:03.471Z,86.4266
2023-05-02T00:57:06.095Z,86.3158
2023-05-02T00:58:08.674Z,86.2350
2023-05-02T00:59:11.257Z,86.1358
2023-05-02T01:00:13.927Z,86.1350
2023-05-02T01:01:16.521Z,85.9526
2023-05-02T01:02:19.149Z,85.7715
2023-05-02T01:03:21.793Z,85.9422
2023-05-02T01:04:24.332Z,86.1442
2023-05-02T01:05:26.921Z,86.1033
2023-05-02T01:06:29.928Z,85.8721
2023-05-02T01:07:32.110Z,85.6424
2023-05-02T01:08:34.773Z,85.3766
2023-05-02T01:09:37.333Z,85.3549
2023-05-02T01:10:39.960Z,85.7050
2023-05-02T01:11:42.856Z,85.7905
2023-05-02T01:12:45.185Z,85.7567
2023-05-02T01:13:47.768Z,85.7088
2023-05-02T01:14:50.401Z,85.7176
2023-05-02T01:15:53.023Z,85.5563
2023-05-02T01:16:55.626Z,85.7506
2023-05-02T01:17:58.271Z,86.0354
2023-05-02T01:19:00.836Z,86.4936
2023-05-02T01:20:03.650Z,86.5051
2023-05-02T01:21:06.071Z,86.4291
2023-05-02T01:22:08.643Z,86.3079
2023-05-02T01:23:11.273Z,86.3174
2023-05-02T01:24:13.864Z,86.3901
2023-05-02T01:25:16.503Z,86.2506
2023-05-02T01:26:19.084Z,86.2385
2023-05-02T01:27:21.717Z,86.3359
2023-05-02T01:28:24.301Z,86.3036
2023-05-02T01:29:26.923Z,86.1727
2023-05-02T01:30:29.686Z,86.3223
2023-05-02T01:31:32.178Z,86.3778
2023-05-02T01:32:34.745Z,86.4395
2023-05-02T01:33:37.350Z,86.3382
2023-05-02T01:34:39.935Z,86.2147
2023-05-02T01:35:42.574Z,86.0210
2023-05-02T01:36:45.167Z,85.7937
2023-05-02T01:37:47.799Z,85.6833
2023-05-02T01:38:50.377Z,85.8179
2023-05-02T01:39:53.004Z,85.7119
2023-05-02T01:40:55.590Z,85.6410
2023-05-02T01:41:58.218Z,85.3020
2023-05-02T01:43:00.797Z,85.1568
2023-05-02T01:44:03.437Z,85.1161
2023-05-02T01:45:06.006Z,85.0701
2023-05-02T01:46:08.634Z,85.1347
2023-05-02T01:47:11.321Z,85.0047
2023-05-02T01:48:13.858Z,84.8107
2023-05-02T01:49:16.438Z,84.7486
2023-05-02T01:50:19.064Z,84.9207
2023-05-02T01:51:21.871Z,85.4127
2023-05-02T01:52:24.285Z,85.5647
2023-05-02T01:53:26.876Z,85.5399
2023-05-02T01:54:29.497Z,85.4905
2023-05-02T01:55:32.093Z,85.4990
2023-05-02T01:56:34.703Z,85.3276
2023-05-02T01:57:37.307Z,85.2584
2023-05-02T01:58:39.921Z,85.3854
2023-05-02T01:59:42.509Z,85.2936
2023-05-02T02:00:45.173Z,85.3753
2023-05-02T02:01:47.719Z,85.5739
2023-05-02T02:02:50.380Z,85.4912
2023-05-02T02:03:53.007Z,85.5089
2023-05-02T02:04:55.579Z,85.5776
2023-05-02T02:05:58.195Z,85.1779
2023-05-02T02:07:00.781Z,84.6667
2023-05-02T02:08:03.366Z,84.5622
2023-05-02T02:09:06.011Z,84.8572
2023-05-02T02:10:08.806Z,84.6568
2023-05-02T02:11:11.216Z,84.6104
2023-05-02T02:12:13.800Z,84.5684
2023-05-02T02:13:16.426Z,84.6032
2023-05-02T02:14:19.027Z,84.6647
2023-05-02T02:15:21.656Z,84.8410
2023-05-02T02:16:24.312Z,84.9843
2023-05-02T02:17:26.955Z,84.8992
2023-05-02T02:18:29.450Z,84.8058
2023-05-02T02:19:32.085Z,84.6988
2023-05-02T02:20:34.657Z,84.6565
2023-05-02T02:21:37.310Z,84.8921
2023-05-02T02:22:39.874Z,84.9079
2023-05-02T02:23:42.515Z,84.8975
2023-05-02T02:24:45.081Z,84.9887
2023-05-02T02:25:47.724Z,85.0874
2023-05-02T02:26:50.292Z,85.1719
2023-05-02T02:27:52.921Z,85.3980
2023-05-02T02:28:55.497Z,85.5701
2023-05-02T02:29:58.504Z,85.7924
2023-05-02T02:31:00.766Z,85.6815
2023-05-02T02:32:03.340Z,85.6411
2023-05-02T02:33:05.993Z,85.6464
2023-05-02T02:34:08.563Z,85.4273
2023-05-02T02:35:11.145Z,85.1092
2023-05-02T02:36:13.777Z,85.3318
2023-05-02T02:37:16.361Z,85.2384
2023-05-02T02:38:18.990Z,85.2183
2023-05-02T02:40:31.937Z,84.9379
2023-05-02T02:41:34.371Z,85.1359
2023-05-02T02:42:37.100Z,85.4714
2023-05-02T02:43:39.602Z,85.5928
2023-05-02T02:44:42.217Z,85.8785
2023-05-02T02:45:44.837Z,86.0651
2023-05-02T02:46:47.498Z,86.3712
2023-05-02T02:47:50.073Z,86.2096
2023-05-02T02:48:52.821Z,86.1499
2023-05-02T02:49:55.263Z,86.2452
2023-05-02T02:50:57.891Z,86.0720
2023-05-02T02:52:00.495Z,86.0760
2023-05-02T02:53:03.104Z,86.1150
2023-05-02T02:54:15.405Z,86.1218
2023-05-02T02:55:08.326Z,86.0612
2023-05-02T02:56:10.898Z,85.6838
2023-05-02T02:57:13.537Z,85.6202
2023-05-02T02:58:16.121Z,85.6161
2023-05-02T02:59:18.753Z,85.5144
2023-05-02T03:00:21.365Z,85.2830
2023-05-02T03:01:24.002Z,85.1356
2023-05-02T03:02:26.568Z,85.2676
2023-05-02T03:03:29.433Z,85.2061
2023-05-02T03:04:31.781Z,85.0389
2023-05-02T03:05:34.425Z,85.0212
2023-05-02T03:06:37.078Z,84.8863
2023-05-02T03:07:39.630Z,84.8109
2023-05-02T03:08:42.213Z,84.8369
2023-05-02T03:09:44.941Z,84.8531
2023-05-02T03:10:47.437Z,84.8647
2023-05-02T03:11:50.105Z,84.9402
2023-05-02T03:12:52.646Z,84.9547
2023-05-02T03:13:55.273Z,84.9346
2023-05-02T03:14:57.876Z,85.0352
2023-05-02T03:16:00.521Z,85.3850
2023-05-02T03:17:03.073Z,85.8205
2023-05-02T03:18:05.720Z,86.2228
2023-05-02T03:19:08.296Z,86.6095
2023-05-02T03:20:10.928Z,86.6235
2023-05-02T03:21:13.519Z,86.4599
2023-05-02T03:22:16.190Z,86.1086
2023-05-02T03:23:18.732Z,85.9299
2023-05-02T03:24:21.431Z,85.7714
2023-05-02T03:25:23.929Z,85.5934
2023-05-02T03:26:26.565Z,85.9432
2023-05-02T03:27:29.150Z,86.1784
2023-05-02T03:28:31.801Z,86.4339
2023-05-02T03:29:34.374Z,86.6825
2023-05-02T03:30:37.002Z,87.0012
2023-05-02T03:31:39.662Z,87.2741
2023-05-02T03:32:42.242Z,87.4066
2023-05-02T03:33:44.805Z,87.4485
2023-05-02T03:34:47.436Z,87.2642
2023-05-02T03:35:50.025Z,86.9586
2023-05-02T03:36:54.108Z,86.6718
2023-05-02T03:37:55.277Z,86.4690
2023-05-02T03:38:57.860Z,86.3626
2023-05-02T03:40:00.946Z,86.1598
2023-05-02T03:41:03.083Z,86.0149
2023-05-02T03:42:05.694Z,85.9229
2023-05-02T03:43:08.280Z,85.8200
2023-05-02T03:46:04.451Z,85.5866
2023-05-02T03:47:07.056Z,86.2893
2023-05-02T03:48:09.747Z,86.7424
2023-05-02T03:50:56.212Z,87.0894
2023-05-02T03:53:13.861Z,87.5401
2023-05-02T03:54:16.472Z,87.7213
2023-05-02T03:55:19.087Z,87.8334
2023-05-02T03:56:21.679Z,87.7133
2023-05-02T03:57:24.301Z,87.8702
2023-05-02T03:58:26.899Z,87.7203
2023-05-02T03:59:29.534Z,87.3303
2023-05-02T04:00:32.136Z,86.8623
2023-05-02T04:01:34.785Z,86.9566
2023-05-02T04:02:37.491Z,87.1925
2023-05-02T04:03:40.048Z,86.9976
2023-05-02T04:04:42.641Z,86.7488
2023-05-02T04:05:45.208Z,86.7234
2023-05-02T04:06:47.914Z,86.4002
2023-05-02T04:07:50.445Z,86.1062
2023-05-02T04:08:53.046Z,85.9710
2023-05-02T04:09:55.661Z,85.7518
2023-05-02T04:10:58.256Z,85.5185
2023-05-02T04:12:01.215Z,85.9427
2023-05-02T04:13:03.478Z,86.2995
2023-05-02T04:14:06.194Z,86.4788
2023-05-02T04:15:08.693Z,86.3019
2023-05-02T04:16:11.328Z,85.7586
2023-05-02T04:17:14.009Z,85.4126
2023-05-02T04:18:16.610Z,85.0848
2023-05-02T04:19:19.126Z,85.0503
2023-05-02T04:20:21.755Z,85.2019
2023-05-02T04:21:24.332Z,85.1472
2023-05-02T04:22:26.976Z,85.0324
2023-05-02T04:23:29.567Z,85.4958
2023-05-02T04:24:32.202Z,85.3480
2023-05-02T04:25:34.779Z,85.0584
2023-05-02T04:26:37.416Z,84.8291
2023-05-02T04:27:40.001Z,84.8955
2023-05-02T04:28:42.633Z,84.9763
2023-05-02T04:29:45.221Z,84.7363
2023-05-02T04:30:47.921Z,84.7127
2023-05-02T04:31:50.440Z,84.6922
2023-05-02T04:32:53.430Z,84.6655
2023-05-02T04:35:01.365Z,84.5257
2023-05-02T04:36:03.992Z,84.7093
2023-05-02T04:37:06.585Z,84.8369
2023-05-02T04:38:09.231Z,84.8696
2023-05-02T04:39:12.119Z,84.7973
2023-05-02T04:40:14.475Z,84.7730
2023-05-02T04:41:17.058Z,85.0376
2023-05-02T04:42:19.701Z,85.2495
2023-05-02T04:43:24.424Z,85.2736
2023-05-02T04:44:24.908Z,85.1500
2023-05-02T04:45:27.609Z,85.1476
2023-05-02T04:46:30.175Z,85.1357
2023-05-02T04:47:32.749Z,85.0765
2023-05-02T04:48:35.406Z,85.1951
2023-05-02T04:49:37.951Z,85.3154
2023-05-02T04:50:40.607Z,85.4805
2023-05-02T04:51:43.189Z,85.1602
2023-05-02T04:52:45.825Z,85.3702
2023-05-02T04:53:48.513Z,85.6620
2023-05-02T04:54:51.060Z,85.8369
2023-05-02T04:55:53.649Z,85.9520
2023-05-02T04:56:56.298Z,85.7285
2023-05-02T04:57:58.897Z,85.6312
2023-05-02T04:59:01.518Z,85.8242
2023-05-02T05:00:04.151Z,86.1778
2023-05-02T05:01:06.775Z,86.5869
2023-05-02T05:02:09.385Z,86.9440
2023-05-02T05:03:12.032Z,86.3622
2023-05-02T05:04:14.810Z,86.1828
2023-05-02T05:05:17.256Z,86.3091
2023-05-02T05:06:19.878Z,86.2274
2023-05-02T05:07:22.527Z,85.9351
2023-05-02T05:08:25.072Z,86.0185
2023-05-02T05:09:27.654Z,86.1489
2023-05-02T05:10:30.322Z,85.9969
2023-05-02T05:11:32.888Z,85.9911
2023-05-02T05:12:35.589Z,86.2534
2023-05-02T05:13:38.138Z,86.3393
2023-05-02T05:16:00.595Z,86.0670
2023-05-02T05:17:03.209Z,86.2961
2023-05-02T05:18:05.851Z,86.6529
2023-05-02T05:19:08.400Z,86.8833
2023-05-02T05:20:10.998Z,86.9127
2023-05-02T05:21:13.624Z,86.7567
2023-05-02T05:22:16.232Z,86.4363
2023-05-02T05:23:18.955Z,86.6080
2023-05-02T05:24:21.431Z,86.6734
2023-05-02T05:25:24.064Z,86.6667
2023-05-02T05:26:26.660Z,86.7667
2023-05-02T05:27:29.431Z,86.7633
2023-05-02T05:28:31.887Z,86.7504
2023-05-02T05:29:34.520Z,87.3816
2023-05-02T05:30:37.117Z,87.8848
2023-05-02T05:31:39.819Z,88.3021
2023-05-02T05:32:42.376Z,88.4901
2023-05-02T05:33:45.182Z,88.4586
2023-05-02T05:36:12.323Z,88.2036
2023-05-02T05:37:14.840Z,88.4125
2023-05-02T05:38:17.462Z,88.5021
2023-05-02T05:39:20.060Z,88.9672
2023-05-02T05:40:22.697Z,89.2337
2023-05-02T05:41:25.344Z,89.2290
2023-05-02T05:42:27.994Z,89.1434
2023-05-02T05:43:30.570Z,89.0135
2023-05-02T05:44:33.203Z,88.9540
2023-05-02T05:45:35.809Z,89.1238
2023-05-02T05:46:39.500Z,89.4574
2023-05-02T05:47:42.081Z,89.4024
2023-05-02T05:48:45.621Z,89.1778
2023-05-02T05:49:46.840Z,89.1317
2023-05-02T05:50:48.794Z,89.1078
2023-05-02T05:51:51.388Z,88.7987
2023-05-02T05:52:54.017Z,88.4697
2023-05-02T05:53:56.601Z,88.4738
2023-05-02T05:54:59.234Z,88.5394
2023-05-02T05:56:01.834Z,88.7516
2023-05-02T05:57:04.452Z,89.0703
2023-05-02T05:58:07.028Z,89.0885
2023-05-02T05:59:09.679Z,89.0048
2023-05-02T06:00:12.253Z,88.7391
2023-05-02T06:01:15.184Z,88.4746
2023-05-02T06:02:17.469Z,88.3561
2023-05-02T06:03:20.152Z,88.1664
2023-05-02T06:04:22.736Z,88.0336
2023-05-02T06:05:25.311Z,87.8906
2023-05-02T06:06:27.913Z,88.0890
2023-05-02T06:07:30.518Z,87.8652
2023-05-02T06:08:33.110Z,87.8433
2023-05-02T06:09:35.736Z,87.7659
2023-05-02T06:10:38.317Z,87.5854
2023-05-02T06:11:40.965Z,87.4300
2023-05-02T06:12:45.200Z,87.5479
2023-05-02T06:13:46.164Z,87.3807
2023-05-02T06:14:48.907Z,87.3782
2023-05-02T06:15:51.421Z,87.3724
2023-05-02T06:16:53.961Z,87.0690
2023-05-02T06:17:56.642Z,86.5246
2023-05-02T06:18:59.180Z,86.4622
2023-05-02T06:20:02.163Z,86.1892
2023-05-02T06:21:04.599Z,86.2592
2023-05-02T06:22:07.002Z,86.2609
2023-05-02T06:23:09.983Z,86.4517
2023-05-02T06:24:12.206Z,86.4433
2023-05-02T06:25:14.783Z,86.5233
2023-05-02T06:26:17.416Z,86.1527
2023-05-02T06:27:19.993Z,85.5886
2023-05-02T06:28:22.624Z,85.4113
2023-05-02T06:29:25.197Z,85.4340
2023-05-02T06:30:27.905Z,85.0886
2023-05-02T06:31:30.470Z,85.2657
2023-05-02T06:32:33.074Z,85.3908
2023-05-02T06:33:35.631Z,85.4543
2023-05-02T06:34:38.243Z,84.8699
2023-05-02T06:35:40.833Z,84.2748
2023-05-02T06:36:43.458Z,83.9383
2023-05-02T06:37:46.061Z,84.5009
2023-05-02T06:38:48.659Z,85.3229
2023-05-02T06:41:30.287Z,85.0983
2023-05-02T06:42:32.870Z,85.9745
2023-05-02T06:43:35.499Z,85.7385
2023-05-02T06:44:38.075Z,85.9187
2023-05-02T06:45:40.722Z,85.9463
2023-05-02T06:46:43.344Z,85.5546
2023-05-02T06:47:45.970Z,85.1855
2023-05-02T06:49:53.806Z,85.7966
2023-05-02T06:50:56.402Z,85.5765
2023-05-02T06:51:59.034Z,84.7693
2023-05-02T06:53:01.606Z,84.3799
2023-05-02T06:54:04.235Z,84.3263
2023-05-02T06:55:06.817Z,84.3649
2023-05-02T06:56:09.454Z,84.1584
2023-05-02T06:57:12.038Z,83.5700
2023-05-02T07:00:08.085Z,84.2680
2023-05-02T07:01:10.700Z,83.8070
2023-05-02T07:02:13.310Z,83.2389
2023-05-02T07:03:15.871Z,83.1278
2023-05-02T07:04:18.514Z,82.9315
2023-05-02T07:05:21.067Z,82.6402
2023-05-02T07:06:23.717Z,83.0790
2023-05-02T07:07:26.275Z,83.0502
2023-05-02T07:08:28.914Z,82.9314
2023-05-02T07:09:31.499Z,81.4230
2023-05-02T07:10:34.137Z,80.8233
2023-05-02T07:11:36.729Z,81.3888
2023-05-02T07:12:39.330Z,81.3413
2023-05-02T07:13:41.926Z,80.4061
2023-05-02T07:14:44.526Z,79.4335
2023-05-02T07:15:47.109Z,79.3607
2023-05-02T07:16:49.822Z,79.5415
2023-05-02T07:17:52.378Z,80.7317
2023-05-02T07:18:54.956Z,80.7299
2023-05-02T07:19:57.518Z,79.4512
2023-05-02T07:21:00.198Z,79.4742
2023-05-02T07:22:02.804Z,79.4912
2023-05-02T07:23:05.365Z,79.3093
2023-05-02T07:24:07.945Z,79.7370
2023-05-02T07:25:10.570Z,78.8712
2023-05-02T07:26:13.132Z,78.7398
2023-05-02T07:27:15.756Z,77.9131
2023-05-02T07:28:18.335Z,78.5609
2023-05-02T07:29:20.978Z,79.8257
2023-05-02T07:30:23.531Z,79.4101
2023-05-02T07:31:26.196Z,77.4985
2023-05-02T07:32:28.787Z,77.4477
2023-05-02T07:33:31.564Z,78.2052
2023-05-02T07:34:33.944Z,76.3598
2023-05-02T07:35:36.554Z,76.0794
2023-05-02T07:36:39.140Z,76.3564
2023-05-02T07:37:41.749Z,77.0005
2023-05-02T07:38:44.459Z,77.2840
2023-05-02T07:39:46.968Z,76.7921
2023-05-02T07:40:49.542Z,76.9446
2023-05-02T07:41:52.154Z,76.3553
2023-05-02T07:42:54.749Z,75.5699
2023-05-02T07:43:57.361Z,75.5655
2023-05-02T07:44:59.968Z,74.8704
2023-05-02T07:48:01.045Z,75.2844
2023-05-02T07:49:03.488Z,75.6562
2023-05-02T07:50:06.107Z,76.0279
2023-05-02T07:51:08.687Z,75.7608
2023-05-02T07:52:11.311Z,75.6663
2023-05-02T07:53:13.891Z,75.0566
2023-05-02T07:54:16.508Z,75.7354
2023-05-02T07:55:19.370Z,75.4196
2023-05-02T07:56:21.734Z,75.1015
2023-05-02T07:57:24.297Z,75.4445
2023-05-02T07:58:26.908Z,74.5485
2023-05-02T07:59:29.477Z,72.4949
2023-05-02T08:00:32.121Z,71.2774
2023-05-02T08:01:34.679Z,71.5505
2023-05-02T08:02:37.455Z,71.2592
2023-05-02T08:03:40.016Z,70.6120
2023-05-02T08:06:07.022Z,69.2775
2023-05-02T08:07:09.606Z,70.9652
2023-05-02T08:08:12.185Z,68.8190
2023-05-02T08:09:14.812Z,70.1851
2023-05-02T08:10:17.395Z,69.7244
2023-05-02T08:11:21.865Z,69.5794
2023-05-02T08:12:22.605Z,70.0158
2023-05-02T08:13:25.237Z,69.3741
2023-05-02T08:14:27.782Z,70.0220
2023-05-02T08:15:30.418Z,71.0277
2023-05-02T08:16:33.034Z,69.8755
2023-05-02T08:17:35.664Z,70.6259
2023-05-02T08:18:38.337Z,68.6765
2023-05-02T08:19:40.813Z,67.6876
2023-05-02T08:20:43.362Z,67.6182
2023-05-02T08:21:45.982Z,64.7085
2023-05-02T08:22:48.558Z,65.7191
2023-05-02T08:23:51.170Z,66.0035
2023-05-02T08:24:53.749Z,66.7317
2023-05-02T08:25:56.370Z,68.1558
2023-05-02T08:26:58.942Z,68.5194
2023-05-02T08:28:01.576Z,68.4781
2023-05-02T08:29:04.143Z,68.2989
2023-05-02T08:30:07.086Z,67.6598
2023-05-02T08:31:09.377Z,67.3384
2023-05-02T08:32:12.051Z,67.0058
2023-05-02T08:33:14.615Z,66.9937
2023-05-02T08:34:17.134Z,67.3423
2023-05-02T08:35:19.685Z,66.9457
2023-05-02T08:36:22.314Z,67.4360
2023-05-02T08:37:24.876Z,68.2174
2023-05-02T08:38:27.507Z,65.9998
2023-05-02T08:39:30.071Z,66.0988
2023-05-02T08:40:40.893Z,66.1318
2023-05-02T08:41:35.269Z,66.4749
2023-05-02T08:42:37.893Z,67.2111
2023-05-02T08:43:40.484Z,67.5964
2023-05-02T08:44:43.079Z,65.9123
2023-05-02T08:45:45.661Z,66.0927
2023-05-02T08:46:48.357Z,67.1799
2023-05-02T08:47:50.949Z,65.5952
2023-05-02T08:48:53.470Z,66.1195
2023-05-02T08:49:56.032Z,66.2049
2023-05-02T08:50:58.657Z,66.6883
2023-05-02T08:52:01.229Z,66.7780
2023-05-02T08:53:03.847Z,65.3257
2023-05-02T08:54:06.423Z,65.9480
2023-05-02T08:55:09.060Z,65.8678
2023-05-02T08:56:11.622Z,64.0695
2023-05-02T08:57:14.248Z,62.2253
2023-05-02T08:58:17.739Z,64.5446
2023-05-02T08:59:19.444Z,65.7923
2023-05-02T09:00:22.056Z,64.6711
2023-05-02T09:01:24.789Z,62.9928
2023-05-02T09:02:27.212Z,63.1542
2023-05-02T09:03:29.820Z,65.1585
2023-05-02T09:04:32.422Z,65.6019
2023-05-02T09:05:35.002Z,65.8128
2023-05-02T09:06:37.679Z,67.0661
2023-05-02T09:07:40.195Z,66.7258
2023-05-02T09:08:42.765Z,66.6263
2023-05-02T09:11:24.327Z,63.8138
2023-05-02T09:12:26.925Z,65.3955
2023-05-02T09:13:29.498Z,66.2252
2023-05-02T09:14:32.124Z,64.6132
2023-05-02T09:15:34.892Z,65.1673
2023-05-02T09:16:37.362Z,65.7804
2023-05-02T09:17:39.995Z,65.4042
2023-05-02T09:18:42.542Z,66.6164
2023-05-02T09:19:45.094Z,65.5806
2023-05-02T09:20:47.714Z,67.0775
2023-05-02T09:21:50.290Z,67.9317
2023-05-02T09:22:52.928Z,67.0031
2023-05-02T09:23:55.526Z,67.6626
2023-05-02T09:24:58.384Z,67.0526
2023-05-02T09:26:00.661Z,66.5137
2023-05-02T09:27:03.497Z,66.3379
2023-05-02T09:28:05.852Z,66.4695
2023-05-02T09:29:08.477Z,65.4070
2023-05-02T09:30:11.053Z,65.9894
2023-05-02T09:31:15.366Z,64.6603
2023-05-02T09:32:16.277Z,64.1438
2023-05-02T09:33:19.330Z,63.9290
2023-05-02T09:34:21.593Z,64.8090
2023-05-02T09:35:24.044Z,64.2804
2023-05-02T09:36:26.611Z,63.5159
2023-05-02T09:37:29.228Z,61.7161
2023-05-02T09:38:31.806Z,62.0463
2023-05-02T09:39:34.436Z,61.0311
2023-05-02T09:40:36.993Z,60.7209
2023-05-02T09:41:39.621Z,62.9057
2023-05-02T09:42:42.200Z,63.4257
2023-05-02T09:43:44.816Z,63.2011
2023-05-02T09:44:47.421Z,62.5565
2023-05-02T09:45:50.073Z,61.5055
2023-05-02T09:46:52.586Z,61.0268
2023-05-02T09:47:55.313Z,59.8126
2023-05-02T09:48:57.776Z,58.4360
2023-05-02T09:50:00.402Z,59.1161
2023-05-02T09:51:02.963Z,59.3146
2023-05-02T09:52:05.573Z,59.5084
2023-05-02T09:53:08.416Z,59.6846
2023-05-02T09:54:10.784Z,60.7397
2023-05-02T09:55:13.352Z,61.0403
2023-05-02T09:56:15.981Z,61.5049
2023-05-02T09:57:18.543Z,61.6588
2023-05-02T09:58:21.174Z,61.6233
2023-05-02T09:59:23.881Z,60.2254
2023-05-02T10:00:26.349Z,61.0021
2023-05-02T10:01:28.959Z,60.7465
2023-05-02T10:02:31.583Z,59.0013
2023-05-02T10:04:53.796Z,59.6354
2023-05-02T10:05:56.357Z,60.1185
2023-05-02T10:06:58.994Z,60.0935
2023-05-02T10:08:01.552Z,59.1549
2023-05-02T10:09:04.174Z,59.4442
2023-05-02T10:10:06.758Z,59.6841
2023-05-02T10:11:09.375Z,59.0136
2023-05-02T10:12:12.157Z,57.9208
2023-05-02T10:13:14.563Z,58.7054
2023-05-02T10:14:17.150Z,59.6175
2023-05-02T10:15:19.770Z,59.4057
2023-05-02T10:16:22.402Z,59.4341
2023-05-02T10:17:24.973Z,57.8877
2023-05-02T10:18:27.527Z,58.3850
2023-05-02T10:19:30.111Z,57.2659
2023-05-02T10:20:32.696Z,57.1263
2023-05-02T10:21:35.305Z,57.7649
2023-05-02T10:22:37.866Z,55.8294
2023-05-02T10:23:40.481Z,56.9417
2023-05-02T10:24:43.054Z,57.5912
2023-05-02T10:25:45.686Z,57.9188
2023-05-02T10:26:48.282Z,57.5379
2023-05-02T10:27:50.869Z,58.0173
2023-05-02T10:28:53.438Z,58.6901
2023-05-02T10:29:56.056Z,58.5225
2023-05-02T10:30:58.636Z,58.2844
2023-05-02T10:32:01.288Z,56.6520
2023-05-02T10:33:03.910Z,56.6178
2023-05-02T10:34:06.684Z,57.0241
2023-05-02T10:35:10.255Z,56.8734
2023-05-02T10:36:11.620Z,56.2535
2023-05-02T10:37:14.179Z,56.5238
2023-05-02T10:38:16.804Z,56.7124
2023-05-02T10:39:19.378Z,57.5374
2023-05-02T10:40:21.984Z,58.3097
2023-05-02T10:41:24.553Z,58.4154
2023-05-02T10:42:28.381Z,57.0981
2023-05-02T10:44:54.221Z,56.5700
2023-05-02T10:45:56.794Z,55.2281
2023-05-02T10:46:59.634Z,53.8884
2023-05-02T10:48:02.006Z,54.0371
2023-05-02T10:49:04.595Z,55.5966
2023-05-02T10:50:07.173Z,54.7275
2023-05-02T10:51:09.941Z,54.3222
2023-05-02T10:52:12.356Z,54.3320
2023-05-02T10:53:14.981Z,55.3957
2023-05-02T10:54:17.559Z,56.6796
2023-05-02T10:56:49.439Z,57.0380
2023-05-02T10:57:52.008Z,57.6876
2023-05-02T10:58:54.637Z,57.6050
2023-05-02T10:59:57.217Z,57.8826
2023-05-02T11:00:59.908Z,57.4545
2023-05-02T11:02:04.019Z,57.7513
2023-05-02T11:03:05.090Z,57.8756
2023-05-02T11:04:07.627Z,57.9296
2023-05-02T11:05:10.264Z,57.7376
2023-05-02T11:06:12.849Z,57.5506
2023-05-02T11:07:15.414Z,55.6712
2023-05-02T11:08:20.210Z,54.8683
2023-05-02T11:09:20.612Z,56.7160
2023-05-02T11:10:23.191Z,56.9210
2023-05-02T11:11:25.831Z,56.9995
2023-05-02T11:12:28.367Z,56.3904
2023-05-02T11:13:30.987Z,56.3659
2023-05-02T11:14:33.603Z,55.7962
2023-05-02T11:15:36.182Z,56.1459
2023-05-02T11:16:38.781Z,57.5311
2023-05-02T11:17:41.384Z,57.1361
2023-05-02T11:18:43.942Z,56.2929
2023-05-02T11:19:46.565Z,54.5057
2023-05-02T11:20:49.129Z,56.1812
2023-05-02T11:21:51.757Z,56.0410
2023-05-02T11:22:54.323Z,55.6894
2023-05-02T11:23:56.948Z,56.6846
2023-05-02T11:24:59.726Z,57.7725
2023-05-02T11:26:02.146Z,58.5498
2023-05-02T11:27:04.720Z,58.4329
2023-05-02T11:28:07.566Z,59.5878
2023-05-02T11:29:09.909Z,59.5469
2023-05-02T11:30:12.785Z,59.7716
2023-05-02T11:31:15.114Z,59.2717
2023-05-02T11:32:17.798Z,59.6484
2023-05-02T11:33:20.475Z,59.5233
2023-05-02T11:34:22.932Z,59.6409
2023-05-02T11:35:25.477Z,59.8896
2023-05-02T11:36:29.161Z,59.8685
2023-05-02T11:37:30.923Z,60.4811
2023-05-02T11:38:33.332Z,59.9676
2023-05-02T11:39:35.888Z,60.0607
2023-05-02T11:40:38.521Z,60.6978
2023-05-02T11:41:41.084Z,60.8757
2023-05-02T11:42:43.710Z,62.3633
2023-05-02T11:43:46.290Z,60.1362
2023-05-02T11:44:48.891Z,59.0398
2023-05-02T11:45:51.506Z,58.4090
2023-05-02T11:46:54.088Z,58.0159
2023-05-02T11:47:58.322Z,58.0235
2023-05-02T11:48:59.268Z,58.1184
2023-05-02T11:50:01.841Z,57.2762
2023-05-02T11:52:38.521Z,56.8220
2023-05-02T11:53:41.101Z,56.9367
2023-05-02T11:54:43.728Z,56.1951
2023-05-02T11:55:46.299Z,56.4017
2023-05-02T11:56:48.933Z,57.8773
2023-05-02T11:57:51.767Z,59.2995
2023-05-02T11:58:54.120Z,61.6721
2023-05-02T11:59:56.680Z,60.9651
2023-05-02T12:00:59.305Z,60.1950
2023-05-02T12:02:01.882Z,59.2701
2023-05-02T12:03:04.562Z,57.0702
2023-05-02T12:04:07.107Z,57.1479
2023-05-02T12:05:09.693Z,57.7259
2023-05-02T12:06:12.890Z,57.6938
2023-05-02T12:07:14.935Z,57.9274
2023-05-02T12:08:17.431Z,56.0470
2023-05-02T12:09:20.062Z,56.2842
2023-05-02T12:10:22.630Z,56.6533
2023-05-02T12:11:25.425Z,56.9018
2023-05-02T12:12:27.850Z,56.5750
2023-05-02T12:13:30.461Z,56.8110
2023-05-02T12:14:33.031Z,56.5617
2023-05-02T12:15:35.645Z,56.7026
2023-05-02T12:16:38.348Z,55.7488
2023-05-02T12:17:40.890Z,55.4267
2023-05-02T12:18:43.418Z,55.9535
2023-05-02T12:19:46.393Z,56.2531
2023-05-02T12:20:48.615Z,57.0648
2023-05-02T12:23:20.504Z,56.1500
2023-05-02T12:24:23.078Z,55.6009
2023-05-02T12:25:25.733Z,55.9216
2023-05-02T12:26:28.281Z,57.9874
2023-05-02T12:27:30.913Z,56.0168
2023-05-02T12:28:33.480Z,56.1138
2023-05-02T12:29:36.115Z,59.1866
2023-05-02T12:30:38.664Z,58.5164
2023-05-02T12:31:41.355Z,58.9359
2023-05-02T12:32:43.933Z,57.0236
2023-05-02T12:33:46.467Z,56.2139
2023-05-02T12:34:49.045Z,55.7774
2023-05-02T12:35:51.660Z,55.5285
2023-05-02T12:36:54.242Z,56.2576
2023-05-02T12:37:57.199Z,55.5307
2023-05-02T12:38:59.825Z,56.1283
2023-05-02T12:40:02.206Z,55.5544
2023-05-02T12:41:04.615Z,56.5074
2023-05-02T12:42:07.233Z,55.5186
2023-05-02T12:43:09.800Z,56.3274
2023-05-02T12:44:12.440Z,55.1332
2023-05-02T12:45:15.002Z,56.9338
2023-05-02T12:46:17.674Z,56.6972
2023-05-02T12:47:20.281Z,56.0386
2023-05-02T12:48:22.807Z,56.6390
2023-05-02T12:49:25.488Z,56.2523
2023-05-02T12:50:27.975Z,57.4782
2023-05-02T12:51:30.582Z,58.8740
2023-05-02T12:52:33.152Z,58.1261
2023-05-02T12:53:35.766Z,56.6425
2023-05-02T12:54:38.336Z,58.5582
2023-05-02T12:55:40.958Z,58.4205
2023-05-02T12:56:43.772Z,56.8689
2023-05-02T12:57:46.134Z,57.9915
2023-05-02T12:58:48.700Z,57.0484
2023-05-02T12:59:51.326Z,56.6914
2023-05-02T13:00:53.909Z,57.7958
2023-05-02T13:01:56.532Z,57.7058
2023-05-02T13:02:59.174Z,57.4984
2023-05-02T13:04:01.754Z,58.4982